createdAt,value
2019-04-03T04:00:26.501Z,100521.79
2019-04-03T04:03:54.334Z,100511.6
2019-04-03T04:07:22.405Z,100517.41
2019-04-03T04:10:50.114Z,100495.75
2019-04-03T04:14:23.300Z,100497.41
2019-04-03T04:17:52.585Z,100523.57
2019-04-03T04:21:20.473Z,100511.28
2019-04-03T04:24:48.289Z,100485.78
2019-04-03T04:28:16.143Z,100495.5
2019-04-03T04:31:44.967Z,100495.11
2019-04-03T04:35:13.718Z,100491.71
2019-04-03T04:38:42.545Z,100484.28
2019-04-03T04:42:10.374Z,100484.14
2019-04-03T04:45:38.193Z,100488.95
2019-04-03T04:49:08.072Z,100503.17
2019-04-03T04:52:35.893Z,100515.31
2019-04-03T04:56:04.769Z,100517.23
2019-04-03T04:59:35.817Z,100521.84
2019-04-03T05:03:04.341Z,100534.43
2019-04-03T05:06:32.153Z,100549.2
2019-04-03T05:10:00.134Z,100558.54
2019-04-03T05:13:29.797Z,100551.17
2019-04-03T05:16:57.878Z,100537.67
2019-04-03T05:20:25.491Z,100522.46
2019-04-03T05:23:55.450Z,100514.42
2019-04-03T05:27:26.097Z,100530.04
2019-04-03T05:30:54.924Z,100546.39
2019-04-03T05:34:22.746Z,100559.59
2019-04-03T05:37:52.553Z,100567.17
2019-04-03T05:41:20.392Z,100552.85
2019-04-03T05:44:49.197Z,100542.57
2019-04-03T05:48:19.015Z,100564.1
2019-04-03T05:51:46.999Z,100572.19
2019-04-03T05:55:14.661Z,100551.17
2019-04-03T05:58:54.300Z,100562.86
2019-04-03T06:02:20.336Z,100547.46
2019-04-03T06:05:48.063Z,100550.65
2019-04-03T06:09:15.927Z,100552.66
2019-04-03T06:12:46.778Z,100580.26
2019-04-03T06:16:16.691Z,100561.24
2019-04-03T06:19:45.506Z,100549.62
2019-04-03T06:23:13.182Z,100573.73
2019-04-03T06:26:42.607Z,100572.17
2019-04-03T06:30:10.855Z,100566.23
2019-04-03T06:33:39.006Z,100576.14
2019-04-03T06:37:06.526Z,100567.82
2019-04-03T06:40:36.407Z,100550.52
2019-04-03T06:44:04.182Z,100581.9
2019-04-03T06:47:33.978Z,100564.87
2019-04-03T06:51:01.814Z,100561.64
2019-04-03T06:54:31.654Z,100570.14
2019-04-03T06:57:59.532Z,100576.28
2019-04-03T07:01:28.417Z,100583.28
2019-04-03T07:04:56.092Z,100593.59
2019-04-03T07:08:33.150Z,100593.23
2019-04-03T07:12:00.645Z,100610.68
2019-04-03T07:15:28.470Z,100612.92
2019-04-03T07:18:56.298Z,100608.96
2019-04-03T07:22:24.122Z,100607.46
2019-04-03T07:25:53.963Z,100613.28
2019-04-03T07:29:25.244Z,100610.59
2019-04-03T07:32:52.556Z,100607.18
2019-04-03T07:36:22.398Z,100609.12
2019-04-03T07:39:51.215Z,100608.15
2019-04-03T07:43:20.031Z,100598.4
2019-04-03T07:46:50.108Z,100582.22
2019-04-03T07:50:21.136Z,100602.78
2019-04-03T07:53:51.148Z,100616.41
2019-04-03T07:57:18.563Z,100624.28
2019-04-03T08:00:46.375Z,100618.62
2019-04-03T08:04:16.020Z,100626.92
2019-04-03T08:07:45.031Z,100633.41
2019-04-03T08:11:14.935Z,100634.28
2019-04-03T08:14:44.082Z,100644.67
2019-04-03T08:18:11.701Z,100635.57
2019-04-03T08:21:40.305Z,100622.64
2019-04-03T08:25:11.707Z,100628.06
2019-04-03T08:28:38.950Z,100640.03
2019-04-03T08:32:06.780Z,100637.9
2019-04-03T08:35:36.582Z,100633.32
2019-04-03T08:39:04.456Z,100631.65
2019-04-03T08:42:33.236Z,100636.36
2019-04-03T08:46:01.082Z,100626.93
2019-04-03T08:49:28.898Z,100628.46
2019-04-03T08:52:56.741Z,100637.63
2019-04-03T08:56:24.560Z,100633.78
2019-04-03T08:59:52.388Z,100624.09
2019-04-03T09:03:21.223Z,100622.9
2019-04-03T09:06:49.134Z,100621.88
2019-04-03T09:10:20.279Z,100626.54
2019-04-03T09:13:47.749Z,100625.28
2019-04-03T09:17:16.636Z,100626.78
2019-04-03T09:20:45.553Z,100619.47
2019-04-03T09:24:13.222Z,100610.27
2019-04-03T09:27:42.159Z,100595.06
2019-04-03T09:31:09.992Z,100592.19
2019-04-03T09:34:37.722Z,100590.01
2019-04-03T09:38:08.676Z,100576.03
2019-04-03T09:41:35.354Z,100579.87
2019-04-03T09:45:03.176Z,100578.65
2019-04-03T09:48:31.033Z,100560.23
2019-04-03T09:52:00.847Z,100564.7
2019-04-03T09:55:31.265Z,100565.06
2019-04-03T09:59:01.485Z,100555.46
2019-04-03T10:02:32.243Z,100552.98
2019-04-03T10:06:01.088Z,100555.6
2019-04-03T10:09:28.912Z,100543.5
2019-04-03T10:12:56.752Z,100535
2019-04-03T10:16:24.562Z,100538.12
2019-04-03T10:19:52.392Z,100533.76
2019-04-03T10:23:20.221Z,100539.21
2019-04-03T10:26:49.459Z,100533.85
2019-04-03T10:30:21.439Z,100536.21
2019-04-03T10:33:48.302Z,100532.51
2019-04-03T10:37:17.189Z,100535.6
2019-04-03T10:40:44.991Z,100533.45
2019-04-03T10:44:12.816Z,100529.46
2019-04-03T10:47:44.277Z,100532.51
2019-04-03T10:51:11.767Z,100534.03
2019-04-03T10:54:41.335Z,100533.26
2019-04-03T10:58:09.966Z,100529.57
2019-04-03T11:01:37.794Z,100525.7
2019-04-03T11:05:07.497Z,100521.75
2019-04-03T11:08:35.165Z,100519.71
2019-04-03T11:12:04.297Z,100515.59
2019-04-03T11:15:34.136Z,100516.25
2019-04-03T11:19:06.312Z,100507.48
2019-04-03T11:22:40.202Z,100508.9
2019-04-03T11:26:08.644Z,100507.39
2019-04-03T11:29:36.516Z,100504.23
2019-04-03T11:33:06.337Z,100504.4
2019-04-03T11:36:36.163Z,100500.7
2019-04-03T11:40:06.428Z,100502.46
2019-04-03T11:43:33.885Z,100505.89
2019-04-03T11:47:01.739Z,100503.53
2019-04-03T11:50:29.944Z,100502.12
2019-04-03T11:53:57.664Z,100502.92
2019-04-03T11:57:27.210Z,100504.25
2019-04-03T12:00:54.378Z,100501.92
2019-04-03T12:04:22.496Z,100499.31
2019-04-03T12:07:50.646Z,100504.79
2019-04-03T12:11:20.825Z,100506.12
2019-04-03T12:14:51.198Z,100500.86
2019-04-03T12:18:19.605Z,100500.81
2019-04-03T12:21:50.773Z,100502.6
2019-04-03T12:25:17.365Z,100498.04
2019-04-03T12:28:45.198Z,100497.75
2019-04-03T12:32:16.224Z,100499.32
2019-04-03T12:35:45.088Z,100497.6
2019-04-03T12:39:12.736Z,100494.84
2019-04-03T12:42:40.626Z,100491.62
2019-04-03T12:46:08.493Z,100483.64
2019-04-03T12:49:36.326Z,100488.93
2019-04-03T12:53:04.335Z,100483.95
2019-04-03T12:56:33.456Z,100485.93
2019-04-03T13:00:01.067Z,100475.81
2019-04-03T13:03:28.954Z,100482.89
2019-04-03T13:06:59.892Z,100475.28
2019-04-03T13:10:40.525Z,100472.48
2019-04-03T13:14:05.895Z,100473.28
2019-04-03T13:17:34.610Z,100473.79
2019-04-03T13:21:02.757Z,100463.2
2019-04-03T13:24:33.504Z,100464.98
2019-04-03T13:28:04.969Z,100459.37
2019-04-03T13:31:32.989Z,100460.9
2019-04-03T13:35:04.213Z,100458.6
2019-04-03T13:38:31.596Z,100451
2019-04-03T13:41:59.378Z,100446.85
2019-04-03T13:45:27.248Z,100438.81
2019-04-03T13:48:57.166Z,100438.64
2019-04-03T13:52:37.731Z,100437.19
2019-04-03T13:55:57.819Z,100424.91
2019-04-03T13:59:27.618Z,100416.5
2019-04-03T14:02:58.218Z,100413.07
2019-04-03T14:06:25.509Z,100412.53
2019-04-03T14:09:55.830Z,100404.14
2019-04-03T14:13:22.941Z,100394.3
2019-04-03T14:16:50.897Z,100397.5
2019-04-03T14:20:18.843Z,100393.85
2019-04-03T14:23:48.656Z,100390.39
2019-04-03T14:27:23.780Z,100384.56
2019-04-03T14:30:51.157Z,100384.78
2019-04-03T14:34:19.025Z,100383.53
2019-04-03T14:37:46.864Z,100385.01
2019-04-03T14:41:17.201Z,100384.42
2019-04-03T14:44:47.041Z,100378.11
2019-04-03T14:48:14.453Z,100374.15
2019-04-03T14:51:44.393Z,100366.26
2019-04-03T14:55:18.830Z,100371.89
2019-04-03T14:58:47.154Z,100367.12
2019-04-03T15:02:14.784Z,100370.81
2019-04-03T15:05:45.120Z,100363.2
2019-04-03T15:09:14.179Z,100359.96
2019-04-03T15:12:43.350Z,100365.12
2019-04-03T15:16:11.044Z,100364.82
2019-04-03T15:19:39.191Z,100356.31
2019-04-03T15:23:08.690Z,100360.7
2019-04-03T15:26:36.528Z,100351.08
2019-04-03T15:30:04.681Z,100341.82
2019-04-03T15:33:35.235Z,100344.98
2019-04-03T15:37:04.285Z,100341.17
2019-04-03T15:40:35.098Z,100339.01
2019-04-03T15:44:02.683Z,100339.48
2019-04-03T15:47:36.432Z,100336.26
2019-04-03T15:51:07.435Z,100334.5
2019-04-03T15:54:36.409Z,100334.44
2019-04-03T15:58:03.856Z,100326.07
2019-04-03T16:01:32.227Z,100327.67
2019-04-03T16:05:01.520Z,100326.2
2019-04-03T16:08:29.881Z,100324.04
2019-04-03T16:12:00.076Z,100320.93
2019-04-03T16:15:30.067Z,100323.67
2019-04-03T16:18:58.234Z,100329.29
2019-04-03T16:22:27.067Z,100325.06
2019-04-03T16:25:56.619Z,100327.34
2019-04-03T16:29:24.726Z,100330.25
2019-04-03T16:32:56.585Z,100329.92
2019-04-03T16:36:27.010Z,100323.37
2019-04-03T16:39:54.882Z,100329.21
2019-04-03T16:43:24.693Z,100323.75
2019-04-03T16:46:52.503Z,100321.92
2019-04-03T16:50:20.329Z,100320.04
2019-04-03T16:53:51.123Z,100314.44
2019-04-03T16:57:22.075Z,100314.83
2019-04-03T17:00:50.478Z,100309.27
2019-04-03T17:04:25.987Z,100302.79
2019-04-03T17:07:54.976Z,100300.02
2019-04-03T17:11:22.369Z,100293.37
2019-04-03T17:14:50.911Z,100289.52
2019-04-03T17:18:20.492Z,100293.46
2019-04-03T17:27:00.824Z,100297.35
2019-04-03T17:30:31.052Z,100293.26
2019-04-03T17:33:59.685Z,100293.24
2019-04-03T17:37:31.946Z,100298.54
2019-04-03T17:41:02.070Z,100299.21
2019-04-03T17:44:32.127Z,100302.98
2019-04-03T17:48:02.387Z,100297.29
2019-04-03T17:51:34.496Z,100298.94
2019-04-03T17:55:04.485Z,100294.06
2019-04-03T17:58:35.363Z,100294.64
2019-04-03T18:02:05.308Z,100290.87
2019-04-03T18:05:35.302Z,100285.52
2019-04-03T18:09:06.320Z,100286.57
2019-04-03T18:12:36.208Z,100284.75
2019-04-03T18:16:07.085Z,100292.06
2019-04-03T18:19:41.486Z,100289.62
2019-04-03T18:23:11.925Z,100291.73
2019-04-03T18:26:45.006Z,100289.53
2019-04-03T18:30:14.488Z,100287.85
2019-04-03T18:33:44.569Z,100294.19
2019-04-03T18:37:15.586Z,100290.62
2019-04-03T18:40:47.537Z,100293.71
2019-04-03T18:44:22.238Z,100286.38
2019-04-03T18:47:53.305Z,100286.4
2019-04-03T18:51:23.317Z,100285.82
2019-04-03T18:54:53.225Z,100286.23
2019-04-03T18:58:25.106Z,100279.67
2019-04-03T19:01:55.033Z,100287.76
2019-04-03T19:05:25.911Z,100283.11
2019-04-03T19:08:55.815Z,100280.23
2019-04-03T19:12:35.221Z,100273.54
2019-04-03T19:16:02.750Z,100284.71
2019-04-03T19:19:32.601Z,100279.96
2019-04-03T19:23:06.708Z,100276.68
2019-04-03T19:26:36.351Z,100276.35
2019-04-03T19:30:08.190Z,100280.26
2019-04-03T19:33:38.054Z,100282.51
2019-04-03T19:37:09.034Z,100284.6
2019-04-03T19:40:40.443Z,100282.39
2019-04-03T19:44:10.812Z,100279.48
2019-04-03T19:47:41.690Z,100281.54
2019-04-03T19:51:13.698Z,100278.71
2019-04-03T19:54:43.569Z,100274.87
2019-04-03T19:58:14.445Z,100272.54
2019-04-03T20:01:44.350Z,100265.92
2019-04-03T20:05:18.535Z,100269.92
2019-04-03T20:08:47.146Z,100268.62
2019-04-03T20:12:17.084Z,100264.89
2019-04-03T20:15:46.996Z,100263.85
2019-04-03T20:19:17.931Z,100260.82
2019-04-03T20:22:48.825Z,100261.35
2019-04-03T20:26:18.718Z,100250.79
2019-04-03T20:29:48.701Z,100251.82
2019-04-03T20:33:18.605Z,100248.46
2019-04-03T20:36:52.775Z,100247.67
2019-04-03T20:40:21.411Z,100247.6
2019-04-03T20:43:51.328Z,100239.32
2019-04-03T20:47:21.221Z,100233.96
2019-04-03T20:50:51.133Z,100236.82
2019-04-03T20:54:22.056Z,100232.12
2019-04-03T20:57:55.635Z,100232.75
2019-04-03T21:01:25.020Z,100238.39
2019-04-03T21:04:55.019Z,100237.12
2019-04-03T21:08:27.939Z,100237.14
2019-04-03T21:11:58.861Z,100238.79
2019-04-03T21:15:28.770Z,100234.56
2019-04-03T21:18:58.695Z,100232.29
2019-04-03T21:22:30.622Z,100230.42
2019-04-03T21:26:00.536Z,100233.81
2019-04-03T21:29:30.473Z,100235.93
2019-04-03T21:33:01.412Z,100231.81
2019-04-03T21:36:31.339Z,100228.62
2019-04-03T21:40:04.997Z,100225.95
2019-04-03T21:43:36.134Z,100228.78
2019-04-03T21:47:06.010Z,100224.68
2019-04-03T21:50:35.914Z,100228.82
2019-04-03T21:54:05.866Z,100233.31
2019-04-03T21:57:38.573Z,100233.69
